Time;durP1;ratioP1;P1;durP2;ratioP2;P2;SDS_P1;SDS_P2;PMS_P1;PMS_P2;Temp;Humidity;BMP_temperature;BMP_pressure;BME280_temperature;BME280_humidity;BME280_pressure;Samples;Min_cycle;Max_cycle;Signal;HPM_P1;HPM_P2
2023/01/09 00:01:21;;;;;;;;;;;;;;;;;;;;;
2023/01/09 00:04:08;;;;;;;0.00;0.00;;;8.20;99.90;;;;;;6192767;23;20039;-91
2023/01/09 00:06:57;;;;;;;0.95;0.32;;;8.10;99.90;;;;;;6169971;23;20027;-90
2023/01/09 00:09:26;;;;;;;1.85;0.47;;;8.20;99.90;;;;;;6170096;23;20394;-91
2023/01/09 00:12:02;;;;;;;0.00;0.00;;;8.20;99.90;;;;;;6192770;23;20020;-90
2023/01/09 00:14:45;;;;;;;0.00;0.00;;;8.10;99.90;;;;;;6153712;23;20027;-90
2023/01/09 00:17:21;;;;;;;0.00;0.00;;;8.10;99.90;;;;;;6174204;23;20019;-90
2023/01/09 00:19:52;;;;;;;0.00;0.00;;;8.10;99.90;;;;;;6169628;23;20016;-90
2023/01/09 00:22:48;;;;;;;0.00;0.00;;;8.10;99.90;;;;;;6169382;23;20013;-90
2023/01/09 00:25:22;;;;;;;0.00;0.00;;;8.00;99.90;;;;;;6173210;23;20017;-90
2023/01/09 00:28:04;;;;;;;0.00;0.00;;;8.10;99.90;;;;;;6193025;23;20016;-90
2023/01/09 00:30:42;;;;;;;;;;;;;;;;;;;;;
2023/01/09 00:33:09;;;;;;;0.10;0.10;;;8.10;99.90;;;;;;6192917;23;20370;-90
2023/01/09 00:35:52;;;;;;;;;;;;;;;;;;;;;
2023/01/09 00:38:28;;;;;;;;;;;;;;;;;;;;;
2023/01/09 00:47:45;;;;;;;0.00;0.00;;;8.00;99.90;;;;;;6188090;23;20020;-90
2023/01/09 00:51:07;;;;;;;0.00;0.00;;;7.90;99.90;;;;;;6244083;22;20031;-90
2023/01/09 00:56:36;;;;;;;;;;;;;;;;;;;;;
2023/01/09 00:59:21;;;;;;;0.10;0.08;;;7.80;99.90;;;;;;6197054;23;20461;-89
2023/01/09 01:02:16;;;;;;;;;;;;;;;;;;;;;
2023/01/09 01:08:03;;;;;;;0.00;0.00;;;7.70;99.90;;;;;;6217352;23;20021;-89
2023/01/09 01:10:46;;;;;;;0.57;0.13;;;7.60;99.90;;;;;;6192810;23;20394;-89
2023/01/09 01:13:48;;;;;;;0.10;0.00;;;7.70;99.90;;;;;;6191422;23;20444;-89
2023/01/09 01:16:17;;;;;;;0.00;0.00;;;7.60;99.90;;;;;;6195632;23;20029;-89
2023/01/09 01:18:47;;;;;;;0.00;0.00;;;7.60;99.90;;;;;;6191763;23;20016;-89
2023/01/09 01:21:29;;;;;;;;;;;;;;;;;;;;;
2023/01/09 01:24:00;;;;;;;0.00;0.00;;;7.60;99.90;;;;;;6216561;23;20474;-89
2023/01/09 01:26:38;;;;;;;0.00;0.00;;;7.60;99.90;;;;;;6192785;23;20016;-89
2023/01/09 01:29:12;;;;;;;0.00;0.00;;;7.60;99.90;;;;;;6192580;23;20099;-89
2023/01/09 01:31:53;;;;;;;0.32;0.00;;;7.60;99.90;;;;;;6193109;23;20063;-89
2023/01/09 01:35:08;;;;;;;0.00;0.00;;;7.60;99.90;;;;;;6191258;23;20448;-89
2023/01/09 01:37:40;;;;;;;0.00;0.00;;;7.60;99.90;;;;;;6217558;23;20107;-89
2023/01/09 01:40:13;;;;;;;0.00;0.00;;;7.60;99.90;;;;;;6191953;23;20016;-89
2023/01/09 01:42:48;;;;;;;0.00;0.00;;;7.60;99.90;;;;;;6191575;23;20020;-89
2023/01/09 01:45:28;;;;;;;0.00;0.00;;;7.50;99.90;;;;;;6217128;23;20024;-89
2023/01/09 01:48:23;;;;;;;0.00;0.00;;;7.60;99.90;;;;;;6191429;23;20030;-89
2023/01/09 01:51:17;;;;;;;0.00;0.00;;;7.50;99.90;;;;;;6185381;23;20055;-88
2023/01/09 01:53:48;;;;;;;0.00;0.00;;;7.50;99.90;;;;;;6154136;23;20031;-88
2023/01/09 01:59:31;;;;;;;;;;;7.50;99.90;;;;;;6216694;23;20020;-88
2023/01/09 02:02:03;;;;;;;0.00;0.00;;;7.40;99.90;;;;;;6216493;23;19920;-88
2023/01/09 02:04:41;;;;;;;0.00;0.00;;;7.40;99.90;;;;;;6191667;23;20452;-88
2023/01/09 02:07:14;;;;;;;0.00;0.00;;;7.30;99.90;;;;;;6192572;23;20504;-88
2023/01/09 02:09:45;;;;;;;0.00;0.00;;;7.30;99.90;;;;;;6242065;23;20047;-88
2023/01/09 02:12:30;;;;;;;0.00;0.00;;;7.20;99.90;;;;;;6192195;23;20025;-88
2023/01/09 02:15:07;;;;;;;0.85;0.25;;;7.30;99.90;;;;;;6191295;23;20016;-88
2023/01/09 02:18:11;;;;;;;0.00;0.00;;;7.20;99.90;;;;;;6190915;23;20013;-88
2023/01/09 02:20:45;;;;;;;0.00;0.00;;;7.20;99.90;;;;;;6215763;23;20386;-88
2023/01/09 02:23:28;;;;;;;0.00;0.00;;;7.10;99.90;;;;;;6216056;23;20431;-88
2023/01/09 02:26:17;;;;;;;0.00;0.00;;;7.10;99.90;;;;;;6215490;23;20020;-88
2023/01/09 02:29:34;;;;;;;0.00;0.00;;;7.10;99.90;;;;;;6191259;23;20017;-88
2023/01/09 02:32:28;;;;;;;0.00;0.00;;;7.10;99.90;;;;;;6190938;23;20440;-88
2023/01/09 02:35:29;;;;;;;0.00;0.00;;;7.30;99.90;;;;;;6218822;22;20052;-88
2023/01/09 02:38:19;;;;;;;0.00;0.00;;;7.10;99.90;;;;;;6186728;23;20024;-88
2023/01/09 02:41:13;;;;;;;0.00;0.00;;;7.00;99.90;;;;;;6221336;23;20016;-88
2023/01/09 02:43:39;;;;;;;0.00;0.00;;;7.00;99.90;;;;;;6220867;23;20016;-88
2023/01/09 02:46:10;;;;;;;0.00;0.00;;;6.90;99.90;;;;;;6196825;23;20016;-88
2023/01/09 02:48:44;;;;;;;0.00;0.00;;;6.90;99.90;;;;;;6171546;23;20095;-87
2023/01/09 02:51:52;;;;;;;0.00;0.00;;;6.90;99.90;;;;;;6196817;23;20066;-87
2023/01/09 02:55:03;;;;;;;0.00;0.00;;;6.80;99.90;;;;;;6167846;23;20028;-87
2023/01/09 02:58:09;;;;;;;0.28;0.15;;;6.80;99.90;;;;;;6216098;23;20019;-87
2023/01/09 03:00:46;;;;;;;0.00;0.00;;;6.70;99.90;;;;;;6221344;23;20023;-88
2023/01/09 03:03:53;;;;;;;0.00;0.00;;;6.70;99.90;;;;;;6221242;23;20490;-88
2023/01/09 03:06:40;;;;;;;0.00;0.00;;;6.60;99.90;;;;;;6194932;23;20023;-87
2023/01/09 03:09:19;;;;;;;0.00;0.00;;;6.60;99.90;;;;;;6220926;23;20435;-87
2023/01/09 03:12:01;;;;;;;0.00;0.00;;;6.60;99.90;;;;;;6222979;23;20020;-87
2023/01/09 03:14:32;;;;;;;0.00;0.00;;;6.60;99.90;;;;;;6223113;23;20062;-87
2023/01/09 03:17:05;;;;;;;0.00;0.00;;;6.60;99.90;;;;;;6197994;23;20312;-88
2023/01/09 03:19:50;;;;;;;;;;;;;;;;;;;;;
2023/01/09 03:22:24;;;;;;;0.00;0.00;;;6.40;99.90;;;;;;6223107;23;20024;-88
2023/01/09 03:24:57;;;;;;;0.00;0.00;;;6.40;99.90;;;;;;6223107;23;20386;-88
2023/01/09 03:27:27;;;;;;;0.00;0.00;;;6.40;99.90;;;;;;6197454;23;20020;-88
2023/01/09 03:29:55;;;;;;;0.00;0.00;;;6.30;99.90;;;;;;6223095;23;20051;-87
2023/01/09 03:32:24;;;;;;;0.00;0.00;;;6.20;99.90;;;;;;6197646;23;20452;-87
2023/01/09 03:34:54;;;;;;;0.00;0.00;;;6.20;99.90;;;;;;6221671;22;20123;-87
2023/01/09 03:37:28;;;;;;;0.00;0.00;;;6.20;99.90;;;;;;6222684;23;20410;-87
2023/01/09 03:40:03;;;;;;;0.00;0.00;;;6.20;99.90;;;;;;6197420;23;20090;-88
2023/01/09 03:42:32;;;;;;;0.00;0.00;;;6.10;99.90;;;;;;6198789;23;20012;-88
2023/01/09 03:45:01;;;;;;;0.00;0.00;;;6.10;99.90;;;;;;6197773;23;20024;-88
2023/01/09 03:47:31;;;;;;;0.00;0.00;;;6.00;99.90;;;;;;6172881;23;20016;-88
2023/01/09 03:50:15;;;;;;;0.05;0.00;;;6.00;99.90;;;;;;6222302;23;20035;-88
2023/01/09 03:52:44;;;;;;;0.00;0.00;;;6.00;99.90;;;;;;6196756;23;20027;-87
2023/01/09 03:55:17;;;;;;;0.00;0.00;;;5.90;99.90;;;;;;6197366;23;20027;-87
2023/01/09 03:58:11;;;;;;;0.00;0.00;;;5.90;99.90;;;;;;6197753;23;20095;-87
2023/01/09 04:00:49;;;;;;;0.00;0.00;;;5.90;99.90;;;;;;6222952;23;20099;-88
2023/01/09 04:03:22;;;;;;;0.75;0.15;;;6.10;99.90;;;;;;6197925;23;20497;-87
2023/01/09 04:06:00;;;;;;;;;;;;;;;;;;;;;
2023/01/09 04:08:49;;;;;;;0.00;0.00;;;5.90;99.90;;;;;;6222668;23;20024;-87
2023/01/09 04:11:25;;;;;;;0.00;0.00;;;6.00;99.90;;;;;;6222729;23;20111;-87
2023/01/09 04:14:24;;;;;;;;;;;;;;;;;;;;;
2023/01/09 04:16:52;;;;;;;1.00;0.20;;;6.00;99.90;;;;;;6222301;23;20012;-87
2023/01/09 04:19:21;;;;;;;0.00;0.00;;;5.90;99.90;;;;;;6222157;23;20074;-87
2023/01/09 04:21:54;;;;;;;0.20;0.20;;;5.90;99.90;;;;;;6222551;23;20062;-87
2023/01/09 04:24:33;;;;;;;;;;;;;;;;;;;;;
2023/01/09 04:27:04;;;;;;;2.92;0.85;;;5.80;99.90;;;;;;6223229;23;20312;-88
2023/01/09 04:29:43;;;;;;;0.10;0.10;;;5.80;99.90;;;;;;6172271;23;20016;-87
2023/01/09 04:32:19;;;;;;;0.40;0.20;;;5.80;99.90;;;;;;6174873;23;20027;-87
2023/01/09 04:35:08;;;;;;;0.10;0.10;;;5.80;99.90;;;;;;6171061;22;20451;-88
2023/01/09 04:38:01;;;;;;;0.00;0.00;;;5.70;99.90;;;;;;6222531;23;20075;-88
2023/01/09 04:40:40;;;;;;;;;;;;;;;;;;;;;
2023/01/09 04:43:08;;;;;;;0.00;0.00;;;5.70;99.90;;;;;;6221913;23;20023;-87
2023/01/09 04:45:39;;;;;;;0.00;0.00;;;5.60;99.90;;;;;;6222142;23;20023;-87
2023/01/09 04:48:39;;;;;;;0.32;0.30;;;5.60;99.90;;;;;;6222108;23;20047;-87
2023/01/09 04:51:23;;;;;;;;;;;;;;;;;;;;;
2023/01/09 04:53:56;;;;;;;0.00;0.00;;;6.00;99.90;;;;;;6198985;23;20023;-87
2023/01/09 04:56:32;;;;;;;0.00;0.00;;;5.70;99.90;;;;;;6221971;23;20107;-87
2023/01/09 04:59:09;;;;;;;0.00;0.00;;;5.60;99.90;;;;;;6208020;23;20019;-86
2023/01/09 05:01:54;;;;;;;0.68;0.15;;;5.60;99.90;;;;;;6200832;22;20051;-86
2023/01/09 05:04:25;;;;;;;0.00;0.00;;;5.60;99.90;;;;;;6201294;23;20023;-87
2023/01/09 05:07:00;;;;;;;0.05;0.00;;;5.60;99.90;;;;;;6222259;23;20515;-87
2023/01/09 05:09:32;;;;;;;0.00;0.00;;;5.60;99.90;;;;;;6196715;23;20016;-86
2023/01/09 05:12:03;;;;;;;1.55;0.00;;;5.60;99.90;;;;;;6197076;23;20027;-87
2023/01/09 05:14:34;;;;;;;0.00;0.00;;;5.60;99.90;;;;;;6195992;23;20020;-87
2023/01/09 05:17:04;;;;;;;0.08;0.00;;;5.70;99.90;;;;;;6197428;23;20012;-87
2023/01/09 05:19:47;;;;;;;0.22;0.20;;;5.50;99.90;;;;;;6197060;23;20501;-87
2023/01/09 05:22:20;;;;;;;0.00;0.00;;;5.50;99.90;;;;;;6221222;23;20334;-87
2023/01/09 05:24:57;;;;;;;0.00;0.00;;;5.50;99.90;;;;;;6196055;23;20055;-87
2023/01/09 05:27:33;;;;;;;;;;;;;;;;;;;;;
2023/01/09 05:30:08;;;;;;;0.00;0.00;;;5.60;99.90;;;;;;6221090;23;20066;-87
2023/01/09 05:32:36;;;;;;;0.32;0.22;;;5.50;99.90;;;;;;6221040;23;20064;-88
2023/01/09 05:35:05;;;;;;;0.00;0.00;;;5.40;99.90;;;;;;6220996;22;20016;-87
2023/01/09 05:37:35;;;;;;;0.10;0.03;;;5.50;99.90;;;;;;6196492;23;20023;-87
2023/01/09 05:40:31;;;;;;;;;;;;;;;;;;;;;
2023/01/09 05:43:15;;;;;;;0.00;0.00;;;5.50;99.90;;;;;;6221202;23;20016;-87
2023/01/09 05:45:56;;;;;;;;;;;;;;;;;;;;;
2023/01/09 05:48:43;;;;;;;;;;;;;;;;;;;;;
2023/01/09 05:51:30;;;;;;;;;;;;;;;;;;;;;
2023/01/09 05:54:07;;;;;;;;;;;;;;;;;;;;;
2023/01/09 05:59:27;;;;;;;0.22;0.22;;;5.40;99.90;;;;;;6220968;23;20020;-88
2023/01/09 06:01:53;;;;;;;0.15;0.15;;;5.90;99.90;;;;;;6196399;23;20075;-87
2023/01/09 06:04:28;;;;;;;0.20;0.08;;;5.50;99.90;;;;;;6195943;23;20016;-87
2023/01/09 06:06:57;;;;;;;0.10;0.10;;;5.40;99.90;;;;;;6222147;23;20016;-87
2023/01/09 06:09:30;;;;;;;0.00;0.00;;;5.40;99.90;;;;;;6196490;23;20004;-87
2023/01/09 06:12:05;;;;;;;0.03;0.03;;;5.50;99.90;;;;;;6196101;23;20043;-87
2023/01/09 06:14:36;;;;;;;0.00;0.00;;;5.50;99.90;;;;;;6171841;23;20034;-87
2023/01/09 06:17:11;;;;;;;0.00;0.00;;;5.80;99.90;;;;;;6171320;23;20016;-87
2023/01/09 06:19:47;;;;;;;;;;;5.50;99.90;;;;;;6221201;23;20345;-87
2023/01/09 06:22:16;;;;;;;0.10;0.10;;;5.40;99.90;;;;;;6220375;23;19959;-86
2023/01/09 06:24:46;;;;;;;0.17;0.17;;;5.40;99.90;;;;;;6221066;23;20020;-87
2023/01/09 06:27:14;;;;;;;0.00;0.00;;;5.40;99.90;;;;;;6195911;23;20569;-86
2023/01/09 06:29:42;;;;;;;0.10;0.00;;;5.40;99.90;;;;;;6195744;23;20320;-87
2023/01/09 06:32:13;;;;;;;0.00;0.00;;;5.30;99.90;;;;;;6195947;23;20346;-87
2023/01/09 06:34:38;;;;;;;0.00;0.00;;;5.30;99.90;;;;;;6195020;22;20099;-86
2023/01/09 06:37:07;;;;;;;0.10;0.08;;;5.30;99.90;;;;;;6194427;23;20031;-87
2023/01/09 06:39:40;;;;;;;0.70;0.05;;;5.50;99.90;;;;;;6220238;23;20047;-86
2023/01/09 06:42:08;;;;;;;0.30;0.30;;;5.20;99.90;;;;;;6169967;23;20020;-86
2023/01/09 06:44:35;;;;;;;0.00;0.00;;;5.20;99.90;;;;;;6194968;23;20023;-86
2023/01/09 06:47:21;;;;;;;0.00;0.00;;;5.20;99.90;;;;;;6196738;23;20462;-87
2023/01/09 06:49:57;;;;;;;0.00;0.00;;;5.30;99.90;;;;;;6173004;23;20027;-87
2023/01/09 06:52:22;;;;;;;0.10;0.00;;;5.20;99.90;;;;;;6196045;23;20051;-87
2023/01/09 06:54:48;;;;;;;0.00;0.00;;;5.20;99.90;;;;;;6220686;23;20035;-87
2023/01/09 06:57:17;;;;;;;0.05;0.05;;;5.20;99.90;;;;;;6220552;23;20020;-87
2023/01/09 06:59:45;;;;;;;1.10;0.30;;;5.20;99.90;;;;;;6195823;23;20027;-86
2023/01/09 07:02:41;;;;;;;0.00;0.00;;;5.20;99.90;;;;;;6220947;23;20016;-87
2023/01/09 07:05:10;;;;;;;0.10;0.10;;;5.20;99.90;;;;;;6220185;23;20470;-86
2023/01/09 07:07:39;;;;;;;0.00;0.00;;;5.20;99.90;;;;;;6220993;23;20020;-86
2023/01/09 07:10:06;;;;;;;0.47;0.47;;;5.20;99.90;;;;;;6172275;23;20012;-86
2023/01/09 07:12:35;;;;;;;0.00;0.00;;;5.20;99.90;;;;;;6171437;23;20098;-85
2023/01/09 07:15:02;;;;;;;0.00;0.00;;;5.40;99.90;;;;;;6171664;23;20103;-85
2023/01/09 07:17:31;;;;;;;2.53;0.43;;;5.20;99.90;;;;;;6195548;23;20016;-85
2023/01/09 07:19:57;;;;;;;0.65;0.65;;;5.50;99.90;;;;;;6195800;23;20455;-86
2023/01/09 07:22:26;;;;;;;0.20;0.20;;;5.40;99.90;;;;;;6166843;23;20347;-86
2023/01/09 07:24:54;;;;;;;0.17;0.17;;;5.30;99.90;;;;;;6194646;23;20034;-86
2023/01/09 07:27:21;;;;;;;0.13;0.00;;;5.40;99.90;;;;;;6219973;23;20028;-86
2023/01/09 07:29:48;;;;;;;0.00;0.00;;;5.50;99.90;;;;;;6195204;23;20115;-86
2023/01/09 07:32:22;;;;;;;0.00;0.00;;;5.50;99.90;;;;;;6219133;23;20473;-86
2023/01/09 07:37:20;;;;;;;3.00;0.90;;;5.60;99.90;;;;;;5077860;27;3196792;-87
2023/01/09 07:39:54;;;;;;;0.70;0.25;;;5.80;99.90;;;;;;5134351;27;20105;-90
2023/01/09 07:42:25;;;;;;;0.90;0.35;;;5.60;99.90;;;;;;5121965;27;20050;-88
2023/01/09 07:44:55;;;;;;;0.00;0.00;;;5.70;99.90;;;;;;5135449;27;20094;-87
2023/01/09 07:47:21;;;;;;;0.00;0.00;;;5.70;99.90;;;;;;5153149;27;20050;-87
2023/01/09 07:49:47;;;;;;;0.00;0.00;;;5.70;99.90;;;;;;5141990;27;20046;-86
2023/01/09 07:52:15;;;;;;;0.00;0.00;;;5.70;99.90;;;;;;5134390;27;20080;-86
2023/01/09 07:54:44;;;;;;;0.00;0.00;;;5.80;99.90;;;;;;5116482;27;20075;-88
2023/01/09 07:57:19;;;;;;;0.00;0.00;;;5.80;99.90;;;;;;5157260;27;20049;-87
2023/01/09 08:00:05;;;;;;;0.32;0.32;;;5.80;99.90;;;;;;5134595;27;20047;-91
2023/01/09 08:02:35;;;;;;;0.05;0.05;;;5.90;99.90;;;;;;5138790;27;20175;-84
2023/01/09 08:05:27;;;;;;;0.00;0.00;;;5.90;99.90;;;;;;5152658;27;20077;-89
2023/01/09 08:07:53;;;;;;;0.10;0.10;;;5.90;99.90;;;;;;5128399;27;20046;-90
2023/01/09 08:10:21;;;;;;;0.00;0.00;;;5.90;99.90;;;;;;5120038;27;20102;-90
2023/01/09 08:13:00;;;;;;;0.00;0.00;;;6.20;99.90;;;;;;5130074;27;20049;-87
2023/01/09 08:15:35;;;;;;;0.00;0.00;;;6.00;99.90;;;;;;5133217;27;20277;-88
2023/01/09 08:18:09;;;;;;;;;;;6.00;99.90;;;;;;5143366;27;20046;-88
2023/01/09 08:23:32;;;;;;;0.03;0.00;;;6.00;99.90;;;;;;5143566;27;20047;-90
2023/01/09 08:25:58;;;;;;;0.00;0.00;;;6.00;99.90;;;;;;5136094;27;20109;-88
2023/01/09 08:28:45;;;;;;;;;;;;;;;;;;;;;
2023/01/09 08:31:19;;;;;;;0.00;0.00;;;6.10;99.90;;;;;;5133794;27;20122;-90
2023/01/09 08:34:16;;;;;;;;;;;;;;;;;;;;;
2023/01/09 08:37:33;;;;;;;0.00;0.00;;;6.10;99.90;;;;;;5133298;27;20092;-90
2023/01/09 08:40:11;;;;;;;0.00;0.00;;;6.10;99.90;;;;;;5120113;27;20104;-90
2023/01/09 08:48:48;;;;;;;0.00;0.00;;;6.20;99.90;;;;;;5114766;27;20483;-91
2023/01/09 08:51:18;;;;;;;0.00;0.00;;;6.10;99.90;;;;;;5087652;27;20059;-90
2023/01/09 08:53:51;;;;;;;4.50;0.70;;;6.20;99.90;;;;;;5103221;27;20046;-89
2023/01/09 08:56:35;;;;;;;0.00;0.00;;;6.20;99.90;;;;;;5103127;27;20092;-90
2023/01/09 08:59:02;;;;;;;4.15;0.95;;;6.20;99.90;;;;;;5103074;27;20058;-89
2023/01/09 09:01:39;;;;;;;0.00;0.00;;;6.30;99.90;;;;;;5102899;27;20090;-90
2023/01/09 09:04:07;;;;;;;0.22;0.22;;;6.20;99.90;;;;;;5101707;27;20050;-91
2023/01/09 09:06:33;;;;;;;0.15;0.00;;;6.30;99.90;;;;;;5085998;27;20399;-89
2023/01/09 09:09:02;;;;;;;0.00;0.00;;;6.30;99.90;;;;;;5102646;27;20039;-89
2023/01/09 09:11:34;;;;;;;0.00;0.00;;;6.30;99.90;;;;;;5108056;27;20047;-91
2023/01/09 09:15:11;;;;;;;0.00;0.00;;;6.40;99.90;;;;;;5127050;27;20038;-90
2023/01/09 09:17:03;;;;;;;;;;;;;;;;;;;;;
2023/01/09 09:19:34;;;;;;;0.00;0.00;;;6.50;99.90;;;;;;5125968;27;20489;-88
2023/01/09 09:22:00;;;;;;;0.28;0.28;;;6.50;99.90;;;;;;5107478;27;20047;-88
2023/01/09 09:24:30;;;;;;;0.00;0.00;;;6.50;99.90;;;;;;5144442;27;20098;-88
2023/01/09 09:27:03;;;;;;;0.25;0.25;;;6.70;99.90;;;;;;5164486;27;20066;-88
2023/01/09 09:29:36;;;;;;;0.15;0.15;;;6.60;99.90;;;;;;5126863;27;20487;-88
2023/01/09 09:32:13;;;;;;;0.00;0.00;;;6.60;99.90;;;;;;5124219;27;20099;-88
2023/01/09 09:35:10;;;;;;;0.00;0.00;;;6.60;99.90;;;;;;5123140;27;20394;-87
2023/01/09 09:37:42;;;;;;;0.00;0.00;;;6.60;99.90;;;;;;5119324;27;20043;-88
2023/01/09 09:40:22;;;;;;;0.00;0.00;;;6.80;99.90;;;;;;5119767;27;20494;-88
2023/01/09 09:46:24;;;;;;;0.00;0.00;;;6.70;99.90;;;;;;5132483;27;20051;-88
2023/01/09 09:49:26;;;;;;;0.00;0.00;;;6.70;99.90;;;;;;5115789;28;20135;-88
2023/01/09 09:52:07;;;;;;;0.00;0.00;;;6.70;99.90;;;;;;5108619;27;20392;-88
2023/01/09 09:54:46;;;;;;;0.00;0.00;;;6.70;99.90;;;;;;5152242;27;20043;-88
2023/01/09 09:57:16;;;;;;;0.00;0.00;;;6.70;99.90;;;;;;5102295;27;20474;-88
2023/01/09 09:59:43;;;;;;;0.00;0.00;;;6.70;99.90;;;;;;5114334;28;20139;-87
2023/01/09 10:02:22;;;;;;;0.00;0.00;;;6.80;99.90;;;;;;5098116;28;20538;-88
2023/01/09 10:04:55;;;;;;;0.00;0.00;;;6.70;99.90;;;;;;5098118;28;20054;-87
2023/01/09 10:07:40;;;;;;;0.00;0.00;;;6.80;99.90;;;;;;5098194;28;20066;-88
2023/01/09 10:10:25;;;;;;;0.00;0.00;;;6.80;99.90;;;;;;5115978;28;20105;-88
2023/01/09 10:14:03;;;;;;;0.00;0.00;;;6.80;99.90;;;;;;5099007;28;20051;-88
2023/01/09 10:16:26;;;;;;;0.30;0.25;;;6.80;99.90;;;;;;5114630;28;20057;-88
2023/01/09 10:19:18;;;;;;;1.25;0.75;;;6.80;99.90;;;;;;5040533;28;20057;-88
2023/01/09 10:22:11;;;;;;;0.00;0.00;;;6.80;99.90;;;;;;5098859;28;20541;-89
2023/01/09 10:24:45;;;;;;;0.00;0.00;;;6.80;99.90;;;;;;5101498;28;20047;-88
2023/01/09 10:27:40;;;;;;;;;;;;;;;;;;;;;
2023/01/09 10:30:23;;;;;;;0.00;0.00;;;6.90;99.90;;;;;;5130358;27;20043;-87
2023/01/09 10:33:19;;;;;;;0.10;0.10;;;6.90;99.90;;;;;;5097884;28;20508;-87
2023/01/09 10:35:53;;;;;;;0.00;0.00;;;6.90;99.90;;;;;;5100847;27;20055;-87
2023/01/09 10:38:27;;;;;;;0.03;0.03;;;6.90;99.90;;;;;;5118456;27;20047;-87
2023/01/09 10:41:31;;;;;;;0.00;0.00;;;6.90;99.90;;;;;;5101491;27;20051;-87
2023/01/09 10:44:14;;;;;;;0.05;0.05;;;6.80;99.90;;;;;;5098931;27;20134;-87
2023/01/09 10:46:48;;;;;;;0.00;0.00;;;6.80;99.90;;;;;;5121847;27;20038;-88
2023/01/09 10:49:19;;;;;;;0.00;0.00;;;6.90;99.90;;;;;;5121904;27;20129;-87
2023/01/09 10:52:08;;;;;;;0.00;0.00;;;6.90;99.90;;;;;;5139220;27;20039;-87
2023/01/09 10:54:46;;;;;;;0.00;0.00;;;6.80;99.90;;;;;;5122275;27;20054;-87
2023/01/09 10:57:18;;;;;;;0.00;0.00;;;6.80;99.90;;;;;;5121472;27;20435;-87
2023/01/09 10:59:47;;;;;;;0.00;0.00;;;6.80;99.90;;;;;;5121688;27;20065;-87
2023/01/09 11:02:41;;;;;;;0.00;0.00;;;6.80;99.90;;;;;;5125079;27;20050;-92
2023/01/09 11:05:35;;;;;;;0.20;0.20;;;6.80;99.90;;;;;;5119333;27;20108;-87
2023/01/09 11:08:27;;;;;;;0.00;0.00;;;6.80;99.90;;;;;;5129353;27;20053;-88
2023/01/09 11:10:59;;;;;;;0.00;0.00;;;6.80;99.90;;;;;;5123497;27;20046;-88
2023/01/09 11:13:37;;;;;;;0.00;0.00;;;6.70;99.90;;;;;;5139265;27;20069;-88
2023/01/09 11:16:22;;;;;;;0.00;0.00;;;6.80;99.90;;;;;;5122768;27;20409;-88
2023/01/09 11:18:58;;;;;;;0.00;0.00;;;6.80;99.90;;;;;;5123443;27;20053;-88
2023/01/09 11:21:34;;;;;;;0.00;0.00;;;6.80;99.90;;;;;;5121466;27;20090;-88
2023/01/09 11:24:24;;;;;;;0.00;0.00;;;6.80;99.90;;;;;;5139557;27;20094;-88
2023/01/09 11:27:14;;;;;;;0.00;0.00;;;6.80;99.90;;;;;;5122049;27;20096;-88
2023/01/09 11:29:41;;;;;;;0.00;0.00;;;6.80;99.90;;;;;;5121594;27;20093;-88
2023/01/09 11:32:23;;;;;;;0.00;0.00;;;6.80;99.90;;;;;;5120928;27;20086;-87
2023/01/09 11:34:54;;;;;;;0.00;0.00;;;6.90;99.90;;;;;;5121044;27;20107;-88
2023/01/09 11:37:27;;;;;;;0.05;0.00;;;6.90;99.90;;;;;;5103863;27;20097;-88
2023/01/09 11:39:54;;;;;;;0.00;0.00;;;6.90;99.90;;;;;;5121001;27;20086;-88
2023/01/09 11:45:30;;;;;;;0.20;0.20;;;6.90;99.90;;;;;;5138927;27;20058;-88
2023/01/09 11:47:57;;;;;;;0.00;0.00;;;6.90;99.90;;;;;;5121314;27;20054;-88
2023/01/09 11:50:35;;;;;;;0.00;0.00;;;7.00;99.90;;;;;;5122471;27;20050;-88
2023/01/09 11:53:18;;;;;;;0.00;0.00;;;7.00;99.90;;;;;;5121299;27;20046;-89
2023/01/09 11:55:52;;;;;;;0.10;0.00;;;7.10;99.90;;;;;;5120948;27;20043;-89
2023/01/09 11:58:27;;;;;;;0.00;0.00;;;7.10;99.90;;;;;;5137613;27;20089;-88
2023/01/09 12:01:29;;;;;;;0.17;0.00;;;7.10;99.90;;;;;;5104988;27;20390;-88
2023/01/09 12:04:29;;;;;;;0.00;0.00;;;7.10;99.90;;;;;;5120654;27;20505;-88
2023/01/09 12:07:25;;;;;;;0.00;0.00;;;7.20;99.90;;;;;;5137794;27;20042;-88
2023/01/09 12:09:54;;;;;;;0.13;0.10;;;7.20;99.90;;;;;;5121151;27;20043;-88
2023/01/09 12:12:28;;;;;;;0.00;0.00;;;7.30;99.90;;;;;;5120983;27;20133;-88
2023/01/09 12:15:34;;;;;;;0.00;0.00;;;7.30;99.90;;;;;;5138525;27;20070;-87
2023/01/09 12:18:22;;;;;;;;;;;7.40;99.90;;;;;;5121742;27;20075;-88
2023/01/09 12:21:25;;;;;;;0.00;0.00;;;7.40;99.90;;;;;;5120921;27;19919;-89
2023/01/09 12:24:09;;;;;;;0.20;0.17;;;7.40;99.90;;;;;;5124205;27;20138;-88
2023/01/09 12:26:53;;;;;;;0.00;0.00;;;7.40;99.90;;;;;;5124793;27;20042;-89
2023/01/09 12:29:47;;;;;;;0.00;0.00;;;7.40;99.90;;;;;;5124681;27;20525;-88
2023/01/09 12:32:28;;;;;;;0.00;0.00;;;7.40;99.90;;;;;;5124830;27;20050;-89
2023/01/09 12:35:02;;;;;;;0.13;0.00;;;7.50;99.90;;;;;;5124088;27;20043;-89
2023/01/09 12:38:04;;;;;;;0.00;0.00;;;7.60;99.90;;;;;;5124190;27;20134;-88
2023/01/09 12:40:47;;;;;;;0.80;0.10;;;7.50;99.90;;;;;;5141573;27;20054;-88
2023/01/09 12:43:30;;;;;;;0.00;0.00;;;7.60;99.90;;;;;;5124869;27;20501;-88
2023/01/09 12:46:16;;;;;;;0.00;0.00;;;7.60;99.90;;;;;;5124473;27;20072;-88
2023/01/09 12:49:00;;;;;;;0.00;0.00;;;7.60;99.90;;;;;;5124473;27;20048;-89
2023/01/09 12:51:46;;;;;;;0.17;0.17;;;7.60;99.90;;;;;;5125206;27;20082;-88
2023/01/09 12:54:44;;;;;;;0.10;0.10;;;7.60;99.90;;;;;;5123853;27;20082;-89
2023/01/09 12:57:34;;;;;;;0.00;0.00;;;7.50;99.90;;;;;;5070625;27;20054;-83
2023/01/09 13:00:19;;;;;;;0.00;0.00;;;7.60;99.90;;;;;;5123323;27;20580;-87
2023/01/09 13:02:57;;;;;;;;;;;7.60;99.90;;;;;;5124344;27;20043;-85
2023/01/09 13:05:31;;;;;;;0.00;0.00;;;7.60;99.90;;;;;;5140821;27;19983;-84
2023/01/09 13:08:06;;;;;;;0.00;0.00;;;7.60;99.90;;;;;;5140498;27;20478;-84
2023/01/09 13:10:55;;;;;;;0.00;0.00;;;7.60;99.90;;;;;;5140634;27;20046;-88
2023/01/09 13:13:44;;;;;;;0.00;0.00;;;7.60;99.90;;;;;;5140477;27;20035;-86
2023/01/09 13:16:16;;;;;;;1.00;0.10;;;7.60;99.90;;;;;;5139692;27;20059;-84
2023/01/09 13:19:04;;;;;;;0.00;0.00;;;7.70;99.90;;;;;;5123369;27;20057;-83
2023/01/09 13:21:31;;;;;;;0.00;0.00;;;7.60;99.90;;;;;;5123276;27;20082;-84
2023/01/09 13:24:15;;;;;;;0.00;0.00;;;7.70;99.90;;;;;;5106232;27;20050;-82
2023/01/09 13:26:52;;;;;;;2.83;0.38;;;7.70;99.90;;;;;;5139992;27;20500;-83
2023/01/09 13:29:27;;;;;;;0.00;0.00;;;7.70;99.90;;;;;;5140029;27;20047;-87
2023/01/09 13:32:21;;;;;;;0.15;0.00;;;7.70;99.90;;;;;;5140443;27;20126;-87
2023/01/09 13:34:53;;;;;;;0.00;0.00;;;7.80;99.90;;;;;;5123524;27;20050;-90
2023/01/09 13:37:34;;;;;;;0.00;0.00;;;7.80;99.90;;;;;;5122856;27;20490;-92
2023/01/09 13:40:09;;;;;;;0.00;0.00;;;7.80;99.90;;;;;;5123342;27;20057;-86
2023/01/09 13:42:48;;;;;;;;;;;;;;;;;;;;;
2023/01/09 13:45:24;;;;;;;0.00;0.00;;;7.90;99.90;;;;;;5141278;27;20455;-88
2023/01/09 13:48:09;;;;;;;0.00;0.00;;;7.90;99.90;;;;;;5123458;27;20103;-87
2023/01/09 13:50:47;;;;;;;;;;;;;;;;;;;;;
2023/01/09 13:53:26;;;;;;;0.13;0.10;;;7.90;99.90;;;;;;5140147;27;20046;-87
2023/01/09 13:55:58;;;;;;;5.22;0.75;;;8.00;99.90;;;;;;5122886;27;20023;-87
2023/01/09 13:58:28;;;;;;;0.00;0.00;;;8.00;99.90;;;;;;5123054;27;20129;-87
2023/01/09 14:01:11;;;;;;;;;;;;;;;;;;;;;
2023/01/09 14:04:07;;;;;;;0.00;0.00;;;8.00;99.90;;;;;;5140921;27;20046;-87
2023/01/09 14:06:42;;;;;;;;;;;;;;;;;;;;;
2023/01/09 14:09:26;;;;;;;1.15;0.38;;;8.10;99.90;;;;;;5140889;27;20082;-87
2023/01/09 14:12:07;;;;;;;0.20;0.17;;;8.00;99.90;;;;;;5142702;27;20030;-89
2023/01/09 14:14:45;;;;;;;;;;;;;;;;;;;;;
2023/01/09 14:21:05;;;;;;;0.00;0.00;;;8.10;99.90;;;;;;5123258;27;20078;-90
2023/01/09 14:23:44;;;;;;;0.00;0.00;;;8.10;99.90;;;;;;5118581;27;20063;-89
2023/01/09 14:26:46;;;;;;;0.00;0.00;;;8.10;99.90;;;;;;5101851;27;20107;-87
2023/01/09 14:29:30;;;;;;;0.00;0.00;;;8.10;99.90;;;;;;5096310;27;20103;-89
2023/01/09 14:32:29;;;;;;;0.00;0.00;;;8.10;99.90;;;;;;5128939;27;20035;-87
2023/01/09 14:35:06;;;;;;;0.10;0.10;;;8.10;99.90;;;;;;5117448;27;20051;-89
2023/01/09 14:37:46;;;;;;;;;;;;;;;;;;;;;
2023/01/09 14:40:24;;;;;;;0.93;0.03;;;8.00;99.90;;;;;;5115428;28;20047;-88
2023/01/09 14:43:05;;;;;;;;;;;;;;;;;;;;;
2023/01/09 14:45:46;;;;;;;;;;;;;;;;;;;;;
2023/01/09 14:48:25;;;;;;;;;;;;;;;;;;;;;
2023/01/09 14:50:54;;;;;;;0.00;0.00;;;8.00;99.90;;;;;;5095140;28;20051;-85
2023/01/09 14:53:38;;;;;;;0.00;0.00;;;8.00;99.90;;;;;;5099134;28;20096;-87
2023/01/09 14:56:15;;;;;;;;;;;;;;;;;;;;;
2023/01/09 14:58:51;;;;;;;;;;;;;;;;;;;;;
2023/01/09 15:01:31;;;;;;;0.00;0.00;;;8.00;99.90;;;;;;5093369;28;20055;-89
2023/01/09 15:04:11;;;;;;;0.10;0.10;;;8.00;99.90;;;;;;5076954;28;20044;-87
2023/01/09 15:06:44;;;;;;;0.52;0.52;;;8.00;99.90;;;;;;5101598;28;20079;-86
2023/01/09 15:09:39;;;;;;;0.00;0.00;;;8.00;99.90;;;;;;5094512;28;20054;-87
2023/01/09 15:12:24;;;;;;;0.20;0.20;;;7.90;99.90;;;;;;5090002;28;20554;-86
2023/01/09 15:15:04;;;;;;;0.00;0.00;;;8.00;99.90;;;;;;5098859;28;20536;-87
2023/01/09 15:17:43;;;;;;;0.00;0.00;;;7.90;99.90;;;;;;5080321;28;20491;-87
2023/01/09 15:20:20;;;;;;;0.00;0.00;;;7.90;99.90;;;;;;5093996;28;20073;-87
2023/01/09 15:23:05;;;;;;;0.00;0.00;;;7.90;99.90;;;;;;5077522;28;20052;-87